createdAt,value
2019-05-28T00:00:38.555Z,13.10
2019-05-28T00:01:38.675Z,13.10
2019-05-28T00:02:38.147Z,13.10
2019-05-28T00:03:39.560Z,13.10
2019-05-28T00:04:39.923Z,13.10
2019-05-28T00:05:40.286Z,13.10
2019-05-28T00:06:40.665Z,13.11
2019-05-28T00:07:41.040Z,13.10
2019-05-28T00:08:44.419Z,13.10
2019-05-28T00:09:41.871Z,13.10
2019-05-28T00:10:42.413Z,13.10
2019-05-28T00:11:42.889Z,13.11
2019-05-28T00:12:43.327Z,13.11
2019-05-28T00:13:43.764Z,13.11
2019-05-28T00:14:44.367Z,13.11
2019-05-28T00:15:45.008Z,13.11
2019-05-28T00:16:45.469Z,13.11
2019-05-28T00:17:45.823Z,13.11
2019-05-28T00:18:46.288Z,13.11
2019-05-28T00:19:46.954Z,13.11
2019-05-28T00:20:47.291Z,13.11
2019-05-28T00:21:47.836Z,13.11
2019-05-28T00:22:48.180Z,13.11
2019-05-28T00:23:48.498Z,13.11
2019-05-28T00:23:57.036Z,13.10
2019-05-28T00:24:58.372Z,13.09
2019-05-28T00:25:58.982Z,13.09
2019-05-28T00:26:59.374Z,13.08
2019-05-28T00:27:59.709Z,13.08
2019-05-28T00:29:00.183Z,13.08
2019-05-28T00:30:00.494Z,13.07
2019-05-28T00:31:00.882Z,13.07
2019-05-28T00:32:01.689Z,13.07
2019-05-28T00:33:01.968Z,13.07
2019-05-28T00:34:02.261Z,13.07
2019-05-28T00:35:02.590Z,13.07
2019-05-28T00:36:02.911Z,13.07
2019-05-28T00:37:03.405Z,13.08
2019-05-28T00:38:03.970Z,13.08
2019-05-28T00:39:04.261Z,13.08
2019-05-28T00:40:04.769Z,13.08
2019-05-28T00:41:05.165Z,13.08
2019-05-28T00:42:05.497Z,13.08
2019-05-28T00:43:05.805Z,13.08
2019-05-28T00:44:06.094Z,13.08
2019-05-28T00:45:06.416Z,13.08
2019-05-28T00:46:06.795Z,13.08
2019-05-28T00:47:07.594Z,13.07
2019-05-28T00:48:07.874Z,13.07
2019-05-28T00:49:08.170Z,13.07
2019-05-28T00:50:08.897Z,13.07
2019-05-28T00:51:09.478Z,13.07
2019-05-28T00:52:09.823Z,13.07
2019-05-28T00:53:10.699Z,13.07
2019-05-28T00:54:11.296Z,13.07
2019-05-28T00:55:11.836Z,13.06
2019-05-28T00:56:12.366Z,13.06
2019-05-28T00:57:12.900Z,13.06
2019-05-28T00:58:13.239Z,13.06
2019-05-28T00:59:14.079Z,13.06
2019-05-28T01:00:14.490Z,13.06
2019-05-28T01:01:14.874Z,13.06
2019-05-28T01:02:15.585Z,13.07
2019-05-28T01:03:16.015Z,13.07
2019-05-28T01:04:16.342Z,13.07
2019-05-28T01:05:17.330Z,13.08
2019-05-28T01:06:17.987Z,13.08
2019-05-28T01:07:18.291Z,13.09
2019-05-28T01:07:26.814Z,13.21
2019-05-28T01:08:27.846Z,13.20
2019-05-28T01:09:28.320Z,13.20
2019-05-28T01:10:28.635Z,13.20
2019-05-28T01:11:28.967Z,13.20
2019-05-28T01:12:29.265Z,13.20
2019-05-28T01:13:29.599Z,13.20
2019-05-28T01:14:30.121Z,13.20
2019-05-28T01:15:30.669Z,13.20
2019-05-28T01:16:31.456Z,13.19
2019-05-28T01:17:31.795Z,13.19
2019-05-28T01:18:32.089Z,13.19
2019-05-28T01:19:32.473Z,13.18
2019-05-28T01:20:32.750Z,13.17
2019-05-28T01:21:33.394Z,13.16
2019-05-28T01:22:33.687Z,13.16
2019-05-28T01:23:34.029Z,13.15
2019-05-28T01:24:34.351Z,13.15
2019-05-28T01:25:34.817Z,13.14
2019-05-28T01:26:35.193Z,13.14
2019-05-28T01:27:35.480Z,13.13
2019-05-28T01:28:36.299Z,13.12
2019-05-28T01:29:36.599Z,13.12
2019-05-28T01:30:54.050Z,13.11
2019-05-28T01:31:37.058Z,13.10
2019-05-28T01:32:38.411Z,13.10
2019-05-28T01:33:39.367Z,13.09
2019-05-28T01:34:39.873Z,13.08
2019-05-28T01:35:40.194Z,13.08
2019-05-28T01:36:40.515Z,13.06
2019-05-28T01:37:40.953Z,13.05
2019-05-28T01:38:41.229Z,13.04
2019-05-28T01:39:41.735Z,13.02
2019-05-28T01:40:40.969Z,13.01
2019-05-28T01:41:42.303Z,12.99
2019-05-28T01:42:42.942Z,12.98
2019-05-28T01:43:43.721Z,12.97
2019-05-28T01:44:44.152Z,12.96
2019-05-28T01:45:44.450Z,12.95
2019-05-28T01:46:44.796Z,12.93
2019-05-28T01:47:45.087Z,12.92
2019-05-28T01:48:45.427Z,12.91
2019-05-28T01:49:45.727Z,12.90
2019-05-28T01:50:45.962Z,12.90
2019-05-28T01:51:46.264Z,12.89
2019-05-28T01:52:46.707Z,12.88
2019-05-28T01:52:55.788Z,12.78
2019-05-28T01:53:56.104Z,12.78
2019-05-28T01:54:57.406Z,12.78
2019-05-28T01:55:57.725Z,12.78
2019-05-28T01:56:58.099Z,12.77
2019-05-28T01:57:58.646Z,12.76
2019-05-28T01:58:59.602Z,12.76
2019-05-28T01:59:59.986Z,12.75
2019-05-28T02:01:12.151Z,12.75
2019-05-28T02:01:59.522Z,12.74
2019-05-28T02:03:00.847Z,12.73
2019-05-28T02:04:01.159Z,12.72
2019-05-28T02:05:01.483Z,12.72
2019-05-28T02:06:01.874Z,12.71
2019-05-28T02:07:02.244Z,12.70
2019-05-28T02:08:02.705Z,12.70
2019-05-28T02:09:03.079Z,12.70
2019-05-28T02:10:02.362Z,12.69
2019-05-28T02:11:03.835Z,12.69
2019-05-28T02:12:04.130Z,12.68
2019-05-28T02:13:04.555Z,12.68
2019-05-28T02:14:04.990Z,12.67
2019-05-28T02:15:05.334Z,12.66
2019-05-28T02:16:05.660Z,12.66
2019-05-28T02:17:05.957Z,12.65
2019-05-28T02:18:06.338Z,12.64
2019-05-28T02:19:07.111Z,12.64
2019-05-28T02:20:07.881Z,12.63
2019-05-28T02:21:08.233Z,12.62
2019-05-28T02:22:08.681Z,12.61
2019-05-28T02:23:09.053Z,12.60
2019-05-28T02:24:09.340Z,12.59
2019-05-28T02:25:09.652Z,12.58
2019-05-28T02:26:09.982Z,12.57
2019-05-28T02:27:10.314Z,12.56
2019-05-28T02:28:10.742Z,12.55
2019-05-28T02:29:10.991Z,12.55
2019-05-28T02:30:11.345Z,12.54
2019-05-28T02:31:25.000Z,12.53
2019-05-28T02:32:10.978Z,12.52
2019-05-28T02:33:12.228Z,12.51
2019-05-28T02:34:12.561Z,12.50
2019-05-28T02:35:12.857Z,12.49
2019-05-28T02:36:13.159Z,12.49
2019-05-28T02:37:13.524Z,12.48
2019-05-28T02:38:13.834Z,12.48
2019-05-28T02:39:14.654Z,12.47
2019-05-28T02:39:25.178Z,12.41
2019-05-28T02:40:26.343Z,12.41
2019-05-28T02:41:26.629Z,12.41
2019-05-28T02:42:26.890Z,12.40
2019-05-28T02:43:27.492Z,12.40
2019-05-28T02:44:27.858Z,12.40
2019-05-28T02:45:28.202Z,12.40
2019-05-28T02:46:27.500Z,12.40
2019-05-28T02:47:28.929Z,12.40
2019-05-28T02:48:29.218Z,12.40
2019-05-28T02:49:29.628Z,12.40
2019-05-28T02:50:29.946Z,12.40
2019-05-28T02:51:30.310Z,12.40
2019-05-28T02:52:32.003Z,12.40
2019-05-28T02:53:30.064Z,12.40
2019-05-28T02:54:31.470Z,12.41
2019-05-28T02:55:32.134Z,12.41
2019-05-28T02:56:32.434Z,12.41
2019-05-28T02:57:32.763Z,12.41
2019-05-28T02:58:33.079Z,12.41
2019-05-28T02:59:33.303Z,12.42
2019-05-28T03:00:33.707Z,12.42
2019-05-28T03:01:43.582Z,12.42
2019-05-28T03:02:33.441Z,12.42
2019-05-28T03:03:34.850Z,12.43
2019-05-28T03:04:35.222Z,12.43
2019-05-28T03:05:35.554Z,12.43
2019-05-28T03:06:36.119Z,12.43
2019-05-28T03:07:36.482Z,12.43
2019-05-28T03:08:36.989Z,12.43
2019-05-28T03:09:37.445Z,12.44
2019-05-28T03:11:01.474Z,12.43
2019-05-28T03:11:37.506Z,12.43
2019-05-28T03:12:38.826Z,12.44
2019-05-28T03:13:39.146Z,12.44
2019-05-28T03:14:39.546Z,12.44
2019-05-28T03:15:39.889Z,12.44
2019-05-28T03:16:40.344Z,12.44
2019-05-28T03:17:40.382Z,12.44
2019-05-28T03:18:40.824Z,12.44
2019-05-28T03:19:40.443Z,12.44
2019-05-28T03:20:41.972Z,12.44
2019-05-28T03:21:42.373Z,12.44
2019-05-28T03:22:42.756Z,12.44
2019-05-28T03:23:43.143Z,12.44
2019-05-28T03:24:43.512Z,12.44
2019-05-28T03:25:43.856Z,12.44
2019-05-28T03:26:44.386Z,12.44
2019-05-28T03:27:44.792Z,12.44
2019-05-28T03:27:54.329Z,12.43
2019-05-28T03:28:55.663Z,12.43
2019-05-28T03:29:55.919Z,12.43
2019-05-28T03:30:56.346Z,12.43
2019-05-28T03:32:07.695Z,12.43
2019-05-28T03:32:56.122Z,12.43
2019-05-28T03:33:57.374Z,12.43
2019-05-28T03:34:57.662Z,12.43
2019-05-28T03:35:57.980Z,12.43
2019-05-28T03:36:58.321Z,12.43
2019-05-28T03:37:58.659Z,12.43
2019-05-28T03:38:59.046Z,12.43
2019-05-28T03:39:59.531Z,12.43
2019-05-28T03:40:59.884Z,12.43
2019-05-28T03:42:00.174Z,12.44
2019-05-28T03:43:00.690Z,12.44
2019-05-28T03:44:01.093Z,12.45
2019-05-28T03:45:01.380Z,12.45
2019-05-28T03:46:01.873Z,12.46
2019-05-28T03:47:02.263Z,12.46
2019-05-28T03:48:02.688Z,12.47
2019-05-28T03:49:02.989Z,12.47
2019-05-28T03:50:03.438Z,12.47
2019-05-28T03:51:03.891Z,12.47
2019-05-28T03:52:04.257Z,12.47
2019-05-28T03:53:04.691Z,12.48
2019-05-28T03:54:04.971Z,12.48
2019-05-28T03:55:04.276Z,12.48
2019-05-28T03:56:05.590Z,12.48
2019-05-28T03:57:05.970Z,12.48
2019-05-28T03:58:06.394Z,12.48
2019-05-28T03:59:06.746Z,12.48
2019-05-28T04:00:07.218Z,12.49
2019-05-28T04:01:07.330Z,12.49
2019-05-28T04:02:22.572Z,12.49
2019-05-28T04:03:07.110Z,12.50
2019-05-28T04:04:08.494Z,12.50
2019-05-28T04:05:09.266Z,12.51
2019-05-28T04:06:09.663Z,12.52
2019-05-28T04:07:10.007Z,12.53
2019-05-28T04:08:10.576Z,12.53
2019-05-28T04:09:09.993Z,12.54
2019-05-28T04:10:11.705Z,12.55
2019-05-28T04:11:12.330Z,12.56
2019-05-28T04:12:12.601Z,12.56
2019-05-28T04:13:12.890Z,12.57
2019-05-28T04:14:13.586Z,12.58
2019-05-28T04:15:12.789Z,12.58
2019-05-28T04:16:14.146Z,12.59
2019-05-28T04:16:22.695Z,12.71
2019-05-28T04:17:24.046Z,12.68
2019-05-28T04:18:24.408Z,12.68
2019-05-28T04:19:24.738Z,12.68
2019-05-28T04:20:25.079Z,12.68
2019-05-28T04:21:25.445Z,12.68
2019-05-28T04:22:25.716Z,12.68
2019-05-28T04:23:26.041Z,12.68
2019-05-28T04:24:26.406Z,12.68
2019-05-28T04:25:26.642Z,12.68
2019-05-28T04:26:26.067Z,12.68
2019-05-28T04:27:27.578Z,12.68
2019-05-28T04:28:27.832Z,12.68
2019-05-28T04:29:28.044Z,12.68
2019-05-28T04:30:28.434Z,12.68
2019-05-28T04:31:29.093Z,12.67
2019-05-28T04:32:40.127Z,12.67
2019-05-28T04:33:28.726Z,12.66
2019-05-28T04:34:30.098Z,12.65
2019-05-28T04:35:30.391Z,12.64
2019-05-28T04:36:30.811Z,12.63
2019-05-28T04:37:31.107Z,12.63
2019-05-28T04:38:31.464Z,12.62
2019-05-28T04:39:35.261Z,12.62
2019-05-28T04:40:31.841Z,12.61
2019-05-28T04:41:32.291Z,12.61
2019-05-28T04:42:32.603Z,12.61
2019-05-28T04:43:32.870Z,12.60
2019-05-28T04:44:33.251Z,12.60
2019-05-28T04:45:33.606Z,12.60
2019-05-28T04:46:33.926Z,12.59
2019-05-28T04:47:34.322Z,12.59
2019-05-28T04:48:34.737Z,12.59
2019-05-28T04:49:35.148Z,12.59
2019-05-28T04:50:35.560Z,12.58
2019-05-28T04:51:35.924Z,12.59
2019-05-28T04:52:36.429Z,12.59
2019-05-28T04:53:36.765Z,12.59
2019-05-28T04:54:37.365Z,12.60
2019-05-28T04:55:37.751Z,12.60
2019-05-28T04:56:38.195Z,12.61
2019-05-28T04:57:38.585Z,12.62
2019-05-28T04:58:38.945Z,12.62
2019-05-28T04:59:39.295Z,12.63
2019-05-28T05:00:39.702Z,12.64
2019-05-28T05:01:39.096Z,12.65
2019-05-28T05:02:57.324Z,12.66
2019-05-28T05:03:40.103Z,12.67
2019-05-28T05:03:48.645Z,12.83
2019-05-28T05:04:49.991Z,12.83
2019-05-28T05:05:50.315Z,12.83
2019-05-28T05:06:50.753Z,12.82
2019-05-28T05:07:51.120Z,12.82
2019-05-28T05:08:50.529Z,12.82
2019-05-28T05:09:51.890Z,12.82
2019-05-28T05:10:52.200Z,12.82
2019-05-28T05:11:52.564Z,12.82
2019-05-28T05:12:52.757Z,12.83
2019-05-28T05:13:53.470Z,12.83
2019-05-28T05:14:53.960Z,12.83
2019-05-28T05:15:53.350Z,12.84
2019-05-28T05:16:54.905Z,12.84
2019-05-28T05:17:55.352Z,12.84
2019-05-28T05:18:55.708Z,12.84
2019-05-28T05:19:56.034Z,12.84
2019-05-28T05:20:56.353Z,12.84
2019-05-28T05:21:56.919Z,12.84
2019-05-28T05:22:57.210Z,12.85
2019-05-28T05:23:57.523Z,12.85
2019-05-28T05:24:57.818Z,12.85
2019-05-28T05:25:58.174Z,12.86
2019-05-28T05:26:58.553Z,12.86
2019-05-28T05:27:58.896Z,12.87
2019-05-28T05:28:59.336Z,12.87
2019-05-28T05:29:59.631Z,12.88
2019-05-28T05:30:59.943Z,12.88
2019-05-28T05:32:00.543Z,12.89
2019-05-28T05:33:18.516Z,12.90
2019-05-28T05:34:00.408Z,12.91
2019-05-28T05:35:01.698Z,12.92
2019-05-28T05:36:02.160Z,12.93
2019-05-28T05:37:02.509Z,12.93
2019-05-28T05:38:02.963Z,12.94
2019-05-28T05:39:03.426Z,12.95
2019-05-28T05:40:02.960Z,12.96
2019-05-28T05:41:04.369Z,12.97
2019-05-28T05:42:04.796Z,12.98
2019-05-28T05:43:05.469Z,12.99
2019-05-28T05:44:06.012Z,13.00
2019-05-28T05:45:07.632Z,13.01
2019-05-28T05:46:05.914Z,13.02
2019-05-28T05:47:07.297Z,13.02
2019-05-28T05:48:07.747Z,13.03
2019-05-28T05:49:08.228Z,13.04
2019-05-28T05:50:08.643Z,13.05
2019-05-28T05:51:09.257Z,13.06
2019-05-28T05:52:09.558Z,13.06
2019-05-28T05:52:18.580Z,13.17
2019-05-28T05:53:19.737Z,13.15
2019-05-28T05:54:20.361Z,13.15
2019-05-28T05:55:20.831Z,13.15
2019-05-28T05:56:21.166Z,13.15
2019-05-28T05:57:21.434Z,13.15
2019-05-28T05:58:21.683Z,13.16
2019-05-28T05:59:21.925Z,13.17
2019-05-28T06:00:22.170Z,13.17
2019-05-28T06:01:22.735Z,13.17
2019-05-28T06:02:23.119Z,13.18
2019-05-28T06:03:39.160Z,13.18
2019-05-28T06:04:22.846Z,13.18
2019-05-28T06:05:24.200Z,13.19
2019-05-28T06:06:24.501Z,13.19
2019-05-28T06:07:25.129Z,13.19
2019-05-28T06:08:24.262Z,13.20
2019-05-28T06:09:25.613Z,13.20
2019-05-28T06:10:25.922Z,13.21
2019-05-28T06:11:26.312Z,13.21
2019-05-28T06:12:26.697Z,13.21
2019-05-28T06:13:27.041Z,13.22
2019-05-28T06:14:26.444Z,13.23
2019-05-28T06:15:27.771Z,13.24
2019-05-28T06:16:28.372Z,13.25
2019-05-28T06:17:27.667Z,13.27
2019-05-28T06:18:29.182Z,13.28
2019-05-28T06:19:29.520Z,13.30
2019-05-28T06:20:29.818Z,13.32
2019-05-28T06:21:30.330Z,13.34
2019-05-28T06:22:30.715Z,13.36
2019-05-28T06:23:31.151Z,13.39
2019-05-28T06:24:30.626Z,13.42
2019-05-28T06:25:31.995Z,13.44
2019-05-28T06:26:32.321Z,13.47
2019-05-28T06:27:32.968Z,13.49
2019-05-28T06:28:33.623Z,13.51
2019-05-28T06:29:34.205Z,13.53
2019-05-28T06:30:34.642Z,13.54
2019-05-28T06:31:34.973Z,13.56
2019-05-28T06:32:36.189Z,13.58
2019-05-28T06:33:34.717Z,13.60
2019-05-28T06:34:36.462Z,13.62
2019-05-28T06:35:36.791Z,13.63
2019-05-28T06:36:37.157Z,13.63
2019-05-28T06:37:37.496Z,13.64
2019-05-28T06:38:37.870Z,13.64
2019-05-28T06:39:38.545Z,13.65
2019-05-28T06:39:47.074Z,13.85
2019-05-28T06:40:48.655Z,13.84
2019-05-28T06:41:49.181Z,13.84
2019-05-28T06:42:49.577Z,13.84
2019-05-28T06:43:50.039Z,13.85
2019-05-28T06:44:50.409Z,13.86
2019-05-28T06:45:49.713Z,13.86
2019-05-28T06:46:51.067Z,13.86
2019-05-28T06:47:51.458Z,13.86
2019-05-28T06:48:51.911Z,13.86
2019-05-28T06:49:52.442Z,13.87
2019-05-28T06:50:52.832Z,13.87
2019-05-28T06:51:53.179Z,13.88
2019-05-28T06:52:53.615Z,13.90
2019-05-28T06:53:54.252Z,13.90
2019-05-28T06:54:55.010Z,13.92
2019-05-28T06:55:54.258Z,13.93
2019-05-28T06:56:55.617Z,13.95
2019-05-28T06:57:56.137Z,13.97
2019-05-28T06:58:56.508Z,13.98
2019-05-28T06:59:57.112Z,13.99
2019-05-28T07:00:57.539Z,14.01
2019-05-28T07:01:56.898Z,14.03
2019-05-28T07:02:58.252Z,14.04
2019-05-28T07:04:12.716Z,14.05
2019-05-28T07:04:57.945Z,14.06
2019-05-28T07:06:07.303Z,14.07
2019-05-28T07:06:59.240Z,14.08
2019-05-28T07:07:59.103Z,14.09
2019-05-28T07:08:59.499Z,14.10
2019-05-28T07:10:00.979Z,14.10
2019-05-28T07:11:01.768Z,14.10
2019-05-28T07:12:01.172Z,14.10
2019-05-28T07:13:02.506Z,14.09
2019-05-28T07:14:01.537Z,14.09
2019-05-28T07:15:03.165Z,14.09
2019-05-28T07:16:02.424Z,14.09
2019-05-28T07:17:03.976Z,14.09
2019-05-28T07:18:04.450Z,14.09
2019-05-28T07:19:04.938Z,14.10
2019-05-28T07:20:05.893Z,14.11
2019-05-28T07:21:06.370Z,14.12
2019-05-28T07:22:07.322Z,14.15
2019-05-28T07:23:07.668Z,14.19
2019-05-28T07:24:08.068Z,14.23
2019-05-28T07:25:07.619Z,14.28
2019-05-28T07:26:09.349Z,14.34
2019-05-28T07:27:09.873Z,14.41
2019-05-28T07:28:11.831Z,14.49
2019-05-28T07:29:09.999Z,14.56
2019-05-28T07:30:11.331Z,14.65
2019-05-28T07:31:11.749Z,14.74
2019-05-28T07:32:12.107Z,14.83
2019-05-28T07:33:12.521Z,14.91
2019-05-28T07:33:21.142Z,16.44
2019-05-28T07:34:30.733Z,16.42
2019-05-28T07:35:21.976Z,16.43
2019-05-28T07:36:23.288Z,16.42
2019-05-28T07:37:23.829Z,16.41
2019-05-28T07:38:24.404Z,16.42
2019-05-28T07:39:24.935Z,16.43
2019-05-28T07:40:31.835Z,16.44
2019-05-28T07:41:25.383Z,16.46
2019-05-28T07:42:32.735Z,16.48
2019-05-28T07:43:26.160Z,16.50
2019-05-28T07:44:27.574Z,16.51
2019-05-28T07:45:28.230Z,16.53
2019-05-28T07:46:28.603Z,16.55
2019-05-28T07:47:29.029Z,16.59
2019-05-28T07:48:29.786Z,16.61
2019-05-28T07:49:30.228Z,16.62
2019-05-28T07:50:30.875Z,16.60
2019-05-28T07:51:31.300Z,16.58
2019-05-28T07:52:31.652Z,16.57
2019-05-28T07:53:39.837Z,16.57
2019-05-28T07:54:32.282Z,16.56
2019-05-28T07:55:33.634Z,16.55
2019-05-28T07:56:34.026Z,16.53
2019-05-28T07:57:34.377Z,16.50
2019-05-28T07:58:34.692Z,16.48
2019-05-28T07:59:35.139Z,16.48
2019-05-28T08:00:35.701Z,16.49
2019-05-28T08:01:36.057Z,16.50
2019-05-28T08:02:35.638Z,16.50
2019-05-28T08:03:37.163Z,16.50
2019-05-28T08:04:46.800Z,16.51
2019-05-28T08:05:36.903Z,16.52
2019-05-28T08:06:53.853Z,16.52
2019-05-28T08:07:37.800Z,16.53
2019-05-28T08:08:39.245Z,16.54
2019-05-28T08:09:40.080Z,16.56
2019-05-28T08:10:40.761Z,16.58
2019-05-28T08:11:41.142Z,16.60
2019-05-28T08:12:41.586Z,16.63
2019-05-28T08:13:42.211Z,16.66
2019-05-28T08:14:42.828Z,16.69
2019-05-28T08:15:43.295Z,16.71
2019-05-28T08:16:52.224Z,16.73
2019-05-28T08:17:43.545Z,16.72
2019-05-28T08:18:45.007Z,16.71
2019-05-28T08:19:45.397Z,16.70
2019-05-28T08:20:45.741Z,16.69
2019-05-28T08:21:46.171Z,16.68
2019-05-28T08:22:45.297Z,16.66
2019-05-28T08:23:45.459Z,16.65
2019-05-28T08:24:46.857Z,16.63
2019-05-28T08:25:48.195Z,16.61
2019-05-28T08:25:55.967Z,16.38
2019-05-28T08:26:57.327Z,16.32
2019-05-28T08:27:57.757Z,16.32
2019-05-28T08:28:59.759Z,16.32
2019-05-28T08:29:57.517Z,16.33
2019-05-28T08:31:14.098Z,16.36
2019-05-28T08:31:58.429Z,16.38
2019-05-28T08:32:59.813Z,16.42
2019-05-28T08:34:00.103Z,16.45
2019-05-28T08:35:05.503Z,16.47
2019-05-28T08:36:00.067Z,16.52
2019-05-28T08:37:06.333Z,16.58
2019-05-28T08:38:01.249Z,16.64
2019-05-28T08:39:02.771Z,16.70
2019-05-28T08:40:03.545Z,16.75
2019-05-28T08:41:04.172Z,16.78
2019-05-28T08:42:04.660Z,16.81
2019-05-28T08:43:05.181Z,16.84
2019-05-28T08:44:05.622Z,16.86
2019-05-28T08:45:05.958Z,16.88
2019-05-28T08:46:06.603Z,16.90
2019-05-28T08:47:06.073Z,16.92
2019-05-28T08:48:07.610Z,16.93
2019-05-28T08:49:08.090Z,16.93
2019-05-28T08:50:08.367Z,16.92
2019-05-28T08:51:10.385Z,16.91
2019-05-28T08:52:08.180Z,16.90
2019-05-28T08:53:09.797Z,16.88
2019-05-28T08:54:10.168Z,16.85
2019-05-28T08:55:10.507Z,16.83
2019-05-28T08:56:10.850Z,16.79
2019-05-28T08:57:10.285Z,16.75
2019-05-28T08:58:12.212Z,16.71
2019-05-28T08:59:11.224Z,16.68
2019-05-28T09:00:12.999Z,16.64
2019-05-28T09:01:12.285Z,16.61
2019-05-28T09:02:27.135Z,16.60
2019-05-28T09:03:12.972Z,16.60
2019-05-28T09:04:14.711Z,16.61
2019-05-28T09:05:26.035Z,16.64
2019-05-28T09:06:14.954Z,16.65
2019-05-28T09:07:16.293Z,16.67
2019-05-28T09:08:16.873Z,16.70
2019-05-28T09:09:16.354Z,16.73
2019-05-28T09:10:16.743Z,16.75
2019-05-28T09:11:18.041Z,16.77
2019-05-28T09:12:17.692Z,16.78
2019-05-28T09:13:19.203Z,16.80
2019-05-28T09:14:19.716Z,16.82
2019-05-28T09:15:21.412Z,16.85
2019-05-28T09:16:19.716Z,16.90
2019-05-28T09:17:21.025Z,16.96
2019-05-28T09:18:21.347Z,17.01
2019-05-28T09:19:21.673Z,17.08
2019-05-28T09:20:22.072Z,17.12
2019-05-28T09:20:30.663Z,18.12
2019-05-28T09:21:31.908Z,18.12
2019-05-28T09:22:32.314Z,18.12
2019-05-28T09:23:32.659Z,18.13
2019-05-28T09:24:33.106Z,18.15
2019-05-28T09:25:33.464Z,18.16
2019-05-28T09:26:33.742Z,18.18
2019-05-28T09:27:34.066Z,18.20
2019-05-28T09:28:34.500Z,18.21
2019-05-28T09:29:34.774Z,18.23
2019-05-28T09:30:35.096Z,18.26
2019-05-28T09:31:35.416Z,18.27
2019-05-28T09:32:35.918Z,18.27
2019-05-28T09:33:35.400Z,18.27
2019-05-28T09:34:36.747Z,18.28
2019-05-28T09:35:44.548Z,18.29
2019-05-28T09:36:36.466Z,18.30
2019-05-28T09:37:37.886Z,18.32
2019-05-28T09:38:38.244Z,18.34
2019-05-28T09:39:38.638Z,18.36
2019-05-28T09:40:49.734Z,18.39
2019-05-28T09:41:38.688Z,18.40
2019-05-28T09:42:40.384Z,18.39
2019-05-28T09:43:41.016Z,18.38
2019-05-28T09:44:41.423Z,18.38
2019-05-28T09:45:41.711Z,18.38
2019-05-28T09:46:42.387Z,18.37
2019-05-28T09:47:42.661Z,18.35
2019-05-28T09:48:43.332Z,18.31
2019-05-28T09:49:43.747Z,18.27
2019-05-28T09:50:44.333Z,18.23
2019-05-28T09:51:44.758Z,18.17
2019-05-28T09:52:54.358Z,18.12
2019-05-28T09:53:44.558Z,18.06
2019-05-28T09:54:45.924Z,18.01
2019-05-28T09:55:46.328Z,17.96
2019-05-28T09:56:46.676Z,17.93
2019-05-28T09:57:48.295Z,17.92
2019-05-28T09:58:46.943Z,17.92
2019-05-28T09:59:48.487Z,17.94
2019-05-28T10:00:57.975Z,17.95
2019-05-28T10:01:48.308Z,17.98
2019-05-28T10:02:49.866Z,17.99
2019-05-28T10:03:49.221Z,18.00
2019-05-28T10:04:51.288Z,18.03
2019-05-28T10:06:01.955Z,18.06
2019-05-28T10:06:50.729Z,18.08
2019-05-28T10:07:52.149Z,18.09
2019-05-28T10:08:52.702Z,18.11
2019-05-28T10:09:53.120Z,18.13
2019-05-28T10:10:53.281Z,18.15
2019-05-28T10:11:01.803Z,18.46
2019-05-28T10:12:03.263Z,18.45
2019-05-28T10:13:02.714Z,18.44
2019-05-28T10:14:03.876Z,18.42
2019-05-28T10:15:04.181Z,18.39
2019-05-28T10:16:04.875Z,18.33
2019-05-28T10:17:04.814Z,18.27
2019-05-28T10:18:06.154Z,18.20
2019-05-28T10:19:06.805Z,18.14
2019-05-28T10:20:07.317Z,18.08
2019-05-28T10:21:17.544Z,18.02
2019-05-28T10:22:07.225Z,17.97
2019-05-28T10:23:08.697Z,17.92
2019-05-28T10:24:09.082Z,17.86
2019-05-28T10:25:08.324Z,17.81
2019-05-28T10:26:09.654Z,17.76
2019-05-28T10:27:09.686Z,17.72
2019-05-28T10:28:10.697Z,17.66
2019-05-28T10:29:09.676Z,17.61
2019-05-28T10:30:11.119Z,17.56
2019-05-28T10:31:11.486Z,17.53
2019-05-28T10:32:11.975Z,17.52
2019-05-28T10:33:12.278Z,17.53
2019-05-28T10:34:11.788Z,17.53
2019-05-28T10:35:13.338Z,17.54
2019-05-28T10:36:12.707Z,17.55
2019-05-28T10:37:14.029Z,17.58
2019-05-28T10:38:16.983Z,17.62
2019-05-28T10:39:14.061Z,17.66
2019-05-28T10:40:15.439Z,17.70
2019-05-28T10:41:16.090Z,17.74
2019-05-28T10:42:16.997Z,17.77
2019-05-28T10:43:16.104Z,17.82
2019-05-28T10:44:17.732Z,17.86
2019-05-28T10:45:17.778Z,17.91
2019-05-28T10:46:18.567Z,17.97
2019-05-28T10:47:56.904Z,18.07
2019-05-28T10:48:58.300Z,18.09
2019-05-28T10:49:58.649Z,18.10
2019-05-28T10:50:59.116Z,18.11
2019-05-28T10:51:59.720Z,18.13
2019-05-28T10:52:59.311Z,18.16
2019-05-28T10:54:00.684Z,18.19
2019-05-28T10:55:02.770Z,18.23
2019-05-28T10:56:00.553Z,18.27
2019-05-28T10:57:01.054Z,18.29
2019-05-28T10:58:02.593Z,18.32
2019-05-28T10:59:02.155Z,18.35
2019-05-28T11:00:04.070Z,18.40
2019-05-28T11:01:03.335Z,18.46
2019-05-28T11:02:04.951Z,18.51
2019-05-28T11:03:05.470Z,18.56
2019-05-28T11:04:05.839Z,18.59
2019-05-28T11:05:06.405Z,18.60
2019-05-28T11:06:06.754Z,18.59
2019-05-28T11:07:07.116Z,18.57
2019-05-28T11:08:07.550Z,18.57
2019-05-28T11:09:08.957Z,18.58
2019-05-28T11:10:23.059Z,18.59
2019-05-28T11:11:08.876Z,18.58
2019-05-28T11:12:10.058Z,18.58
2019-05-28T11:13:10.679Z,18.59
2019-05-28T11:14:11.137Z,18.61
2019-05-28T11:15:11.794Z,18.65
2019-05-28T11:16:12.196Z,18.68
2019-05-28T11:17:12.608Z,18.72
2019-05-28T11:18:13.177Z,18.75
2019-05-28T11:19:13.985Z,18.77
2019-05-28T11:20:14.527Z,18.79
2019-05-28T11:21:14.921Z,18.82
2019-05-28T11:22:15.240Z,18.85
2019-05-28T11:23:15.696Z,18.89
2019-05-28T11:24:16.163Z,18.91
2019-05-28T11:25:16.563Z,18.93
2019-05-28T11:26:16.942Z,18.95
2019-05-28T11:27:17.293Z,18.98
2019-05-28T11:28:17.423Z,19.01
2019-05-28T11:29:17.907Z,19.04
2019-05-28T11:30:18.644Z,19.05
2019-05-28T11:31:19.313Z,19.06
2019-05-28T11:32:19.804Z,19.06
2019-05-28T11:33:20.525Z,19.07
2019-05-28T11:34:21.196Z,19.07
2019-05-28T11:35:21.954Z,19.09
2019-05-28T11:36:22.302Z,19.13
2019-05-28T11:37:22.907Z,19.16
2019-05-28T11:37:31.466Z,19.88
2019-05-28T11:38:32.901Z,19.87
2019-05-28T11:39:33.268Z,19.88
2019-05-28T11:40:33.705Z,19.89
2019-05-28T11:41:41.932Z,19.90
2019-05-28T11:42:33.793Z,19.93
2019-05-28T11:43:35.175Z,19.95
2019-05-28T11:44:35.650Z,19.97
2019-05-28T11:45:36.057Z,20.00
2019-05-28T11:46:36.767Z,20.02
2019-05-28T11:47:37.235Z,20.04
2019-05-28T11:48:37.585Z,20.04
2019-05-28T11:49:38.001Z,20.02
2019-05-28T11:50:38.453Z,19.96
2019-05-28T11:51:38.821Z,19.90
2019-05-28T11:52:39.484Z,19.85
2019-05-28T11:53:38.883Z,19.81
2019-05-28T11:54:40.607Z,19.76
2019-05-28T11:55:41.059Z,19.73
2019-05-28T11:56:41.781Z,19.72
2019-05-28T11:57:42.348Z,19.72
2019-05-28T11:58:42.894Z,19.72
2019-05-28T11:59:43.303Z,19.71
2019-05-28T12:00:43.853Z,19.72
2019-05-28T12:01:44.408Z,19.73
2019-05-28T12:02:44.909Z,19.75
2019-05-28T12:03:45.783Z,19.76
2019-05-28T12:04:46.194Z,19.79
2019-05-28T12:05:45.529Z,19.82
2019-05-28T12:06:47.100Z,19.86
2019-05-28T12:07:51.535Z,19.90
2019-05-28T12:08:47.222Z,19.94
2019-05-28T12:09:48.593Z,19.96
2019-05-28T12:10:49.012Z,20.00
2019-05-28T12:11:49.708Z,20.04
2019-05-28T12:12:50.179Z,20.07
2019-05-28T12:13:50.864Z,20.09
2019-05-28T12:14:51.230Z,20.10
2019-05-28T12:15:51.607Z,20.10
2019-05-28T12:16:52.358Z,20.11
2019-05-28T12:17:52.765Z,20.12
2019-05-28T12:18:53.493Z,20.09
2019-05-28T12:19:53.634Z,20.06
2019-05-28T12:20:54.381Z,20.01
2019-05-28T12:21:55.087Z,19.97
2019-05-28T12:23:09.462Z,19.91
2019-05-28T12:23:55.001Z,19.84
2019-05-28T12:24:55.512Z,19.74
2019-05-28T12:25:56.472Z,19.66
2019-05-28T12:26:57.911Z,19.54
2019-05-28T12:27:57.235Z,19.41
2019-05-28T12:28:05.798Z,17.32
2019-05-28T12:29:07.437Z,17.28
2019-05-28T12:30:08.024Z,17.25
2019-05-28T12:31:08.772Z,17.20
2019-05-28T12:32:10.346Z,17.14
2019-05-28T12:33:08.790Z,17.05
2019-05-28T12:34:10.699Z,16.95
2019-05-28T12:35:26.613Z,16.84
2019-05-28T12:36:10.962Z,16.75
2019-05-28T12:37:12.616Z,16.65
2019-05-28T12:38:13.285Z,16.54
2019-05-28T12:39:13.484Z,16.44
2019-05-28T12:40:14.239Z,16.31
2019-05-28T12:41:14.709Z,16.20
2019-05-28T12:42:15.337Z,16.09
2019-05-28T12:43:16.219Z,15.99
2019-05-28T12:44:17.599Z,15.88
2019-05-28T12:45:16.274Z,15.79
2019-05-28T12:46:17.273Z,15.70